Time;durP1;ratioP1;P1;durP2;ratioP2;P2;SDS_P1;SDS_P2;PMS_P1;PMS_P2;Temp;Humidity;BMP_temperature;BMP_pressure;BME280_temperature;BME280_humidity;BME280_pressure;Samples;Min_cycle;Max_cycle;Signal;HPM_P1;HPM_P2
2021/07/23 00:00:32;;;;;;;5.85;5.25;;;;;;;;;;4989701;28;20201;-56
2021/07/23 00:02:57;;;;;;;6.10;5.50;;;;;;;;;;4989410;28;20203;-56
2021/07/23 00:05:23;;;;;;;5.68;5.13;;;;;;;;;;4989315;28;20844;-55
2021/07/23 00:07:48;;;;;;;5.60;4.68;;;;;;;;;;4984961;28;20279;-56
2021/07/23 00:10:13;;;;;;;5.57;4.88;;;;;;;;;;4973059;28;20211;-55
2021/07/23 00:12:38;;;;;;;7.15;5.00;;;;;;;;;;4971571;28;20224;-56
2021/07/23 00:15:04;;;;;;;5.53;4.75;;;;;;;;;;4984244;28;20475;-56
2021/07/23 00:17:29;;;;;;;5.72;4.63;;;;;;;;;;4991047;28;20191;-56
2021/07/23 00:19:54;;;;;;;5.22;4.35;;;;;;;;;;4988330;28;20203;-56
2021/07/23 00:22:19;;;;;;;5.95;5.10;;;;;;;;;;4988892;28;20180;-56
2021/07/23 00:24:45;;;;;;;10.00;4.35;;;;;;;;;;4985521;28;20197;-56
2021/07/23 00:27:10;;;;;;;11.48;5.03;;;;;;;;;;4987841;28;20725;-56
2021/07/23 00:29:35;;;;;;;10.93;5.05;;;;;;;;;;4988936;28;20238;-56
2021/07/23 00:32:00;;;;;;;5.97;4.75;;;;;;;;;;4986709;28;20289;-56
2021/07/23 00:34:25;;;;;;;5.57;4.70;;;;;;;;;;4988759;28;20692;-56
2021/07/23 00:36:50;;;;;;;7.00;4.90;;;;;;;;;;4988690;28;20431;-55
2021/07/23 00:39:16;;;;;;;5.97;4.57;;;;;;;;;;4988490;28;20648;-55
2021/07/23 00:41:41;;;;;;;8.63;5.15;;;;;;;;;;4988230;28;20227;-56
2021/07/23 00:44:06;;;;;;;5.65;4.43;;;;;;;;;;4989026;28;20180;-56
2021/07/23 00:46:31;;;;;;;6.15;4.55;;;;;;;;;;4988782;28;20310;-55
2021/07/23 00:48:57;;;;;;;7.65;4.47;;;;;;;;;;4986475;28;20185;-58
2021/07/23 00:51:22;;;;;;;5.43;4.05;;;;;;;;;;4989253;28;20208;-56
2021/07/23 00:53:48;;;;;;;9.18;4.75;;;;;;;;;;4990618;28;20183;-54
2021/07/23 00:56:13;;;;;;;5.25;4.75;;;;;;;;;;4986675;28;20210;-56
2021/07/23 00:58:39;;;;;;;8.18;4.93;;;;;;;;;;4984805;28;20283;-56
2021/07/23 01:01:04;;;;;;;7.65;4.40;;;;;;;;;;4988271;28;20582;-55
2021/07/23 01:03:29;;;;;;;6.07;4.47;;;;;;;;;;4988680;28;20203;-55
2021/07/23 01:05:55;;;;;;;5.75;4.90;;;;;;;;;;4986160;28;20195;-55
2021/07/23 01:08:20;;;;;;;7.25;4.88;;;;;;;;;;4989668;28;20181;-56
2021/07/23 01:10:46;;;;;;;7.45;4.55;;;;;;;;;;4988298;28;20207;-56
2021/07/23 01:13:12;;;;;;;6.90;4.90;;;;;;;;;;4987479;28;20180;-55
2021/07/23 01:15:37;;;;;;;4.82;4.32;;;;;;;;;;4985164;28;20208;-55
2021/07/23 01:18:02;;;;;;;5.60;4.60;;;;;;;;;;4986610;28;20184;-55
2021/07/23 01:20:28;;;;;;;5.47;4.25;;;;;;;;;;4989073;28;20286;-56
2021/07/23 01:22:54;;;;;;;6.22;4.15;;;;;;;;;;4971088;28;20668;-56
2021/07/23 01:25:20;;;;;;;6.35;4.50;;;;;;;;;;4988630;28;20226;-54
2021/07/23 01:27:50;;;;;;;6.47;4.20;;;;;;;;;;4987719;28;20192;-55
2021/07/23 01:30:15;;;;;;;6.40;4.55;;;;;;;;;;4985693;28;20208;-56
2021/07/23 01:32:40;;;;;;;5.75;4.70;;;;;;;;;;4987529;28;20250;-56
2021/07/23 01:35:09;;;;;;;6.50;4.65;;;;;;;;;;4986657;28;20291;-55
2021/07/23 01:37:34;;;;;;;6.35;4.70;;;;;;;;;;4988166;28;20180;-55
2021/07/23 01:40:00;;;;;;;4.97;4.40;;;;;;;;;;4986131;28;20204;-56
2021/07/23 01:42:26;;;;;;;5.45;4.70;;;;;;;;;;4989496;28;20176;-55
2021/07/23 01:44:51;;;;;;;5.22;4.07;;;;;;;;;;4986655;28;20186;-55
2021/07/23 01:47:16;;;;;;;5.13;4.10;;;;;;;;;;4985123;28;20744;-55
2021/07/23 01:49:41;;;;;;;5.75;4.53;;;;;;;;;;4988176;28;20431;-56
2021/07/23 01:52:07;;;;;;;7.45;4.95;;;;;;;;;;4987641;28;20194;-55
2021/07/23 01:54:32;;;;;;;6.38;4.72;;;;;;;;;;4988108;28;20213;-56
2021/07/23 01:56:57;;;;;;;5.93;4.30;;;;;;;;;;4986761;28;20176;-54
2021/07/23 01:59:22;;;;;;;4.70;4.13;;;;;;;;;;4986235;28;20549;-56
2021/07/23 02:01:47;;;;;;;5.20;4.35;;;;;;;;;;4986655;28;20214;-55
2021/07/23 02:04:13;;;;;;;8.40;4.40;;;;;;;;;;4984662;28;20185;-55
2021/07/23 02:06:38;;;;;;;5.40;4.50;;;;;;;;;;4969311;28;20419;-56
2021/07/23 02:09:03;;;;;;;6.32;4.43;;;;;;;;;;4968467;28;20435;-56
2021/07/23 02:11:30;;;;;;;8.80;4.95;;;;;;;;;;4969103;28;20211;-55
2021/07/23 02:13:56;;;;;;;5.82;4.82;;;;;;;;;;4987314;28;20315;-55
2021/07/23 02:16:21;;;;;;;8.25;4.68;;;;;;;;;;4982572;28;20294;-56
2021/07/23 02:18:46;;;;;;;6.25;4.20;;;;;;;;;;4985481;28;20315;-56
2021/07/23 02:21:11;;;;;;;4.97;4.47;;;;;;;;;;4984274;28;20224;-55
2021/07/23 02:23:36;;;;;;;5.63;4.43;;;;;;;;;;4982548;28;20180;-56
2021/07/23 02:26:01;;;;;;;5.00;4.25;;;;;;;;;;4986952;28;20192;-55
2021/07/23 02:28:27;;;;;;;4.32;3.92;;;;;;;;;;4984173;28;20191;-55
2021/07/23 02:30:52;;;;;;;4.95;3.63;;;;;;;;;;4986067;28;20375;-56
2021/07/23 02:33:17;;;;;;;5.68;3.92;;;;;;;;;;4985473;28;20192;-55
2021/07/23 02:35:43;;;;;;;5.22;4.10;;;;;;;;;;4983674;28;20204;-56
2021/07/23 02:38:08;;;;;;;5.53;3.63;;;;;;;;;;4986661;28;20567;-55
2021/07/23 02:40:33;;;;;;;5.30;4.13;;;;;;;;;;4984861;28;20207;-55
2021/07/23 02:42:58;;;;;;;5.50;4.03;;;;;;;;;;4983513;28;20177;-56
2021/07/23 02:45:24;;;;;;;4.30;3.67;;;;;;;;;;4985570;28;20451;-57
2021/07/23 02:47:50;;;;;;;3.50;3.20;;;;;;;;;;4988317;28;20190;-56
2021/07/23 02:50:15;;;;;;;6.22;3.90;;;;;;;;;;4988450;28;20214;-55
2021/07/23 02:52:40;;;;;;;5.80;3.53;;;;;;;;;;4985584;28;20184;-55
2021/07/23 02:55:05;;;;;;;4.17;3.30;;;;;;;;;;4987227;28;20475;-55
2021/07/23 02:57:31;;;;;;;5.13;3.38;;;;;;;;;;4988165;28;20435;-56
2021/07/23 02:59:56;;;;;;;4.82;3.63;;;;;;;;;;4993636;23;20704;-81
2021/07/23 03:02:21;;;;;;;5.28;3.67;;;;;;;;;;4984461;28;20180;-80
2021/07/23 03:04:46;;;;;;;5.72;3.70;;;;;;;;;;4983793;28;20230;-80
2021/07/23 03:07:12;;;;;;;5.63;4.40;;;;;;;;;;4978251;28;20494;-80
2021/07/23 03:09:37;;;;;;;6.38;4.35;;;;;;;;;;4981037;28;20188;-80
2021/07/23 03:12:02;;;;;;;7.60;4.30;;;;;;;;;;4980029;28;20501;-80
2021/07/23 03:14:27;;;;;;;5.47;4.00;;;;;;;;;;4982803;28;20882;-80
2021/07/23 03:16:52;;;;;;;4.65;3.70;;;;;;;;;;4978425;28;20212;-79
2021/07/23 03:19:18;;;;;;;5.93;3.80;;;;;;;;;;4969123;28;20187;-79
2021/07/23 03:21:43;;;;;;;10.75;4.13;;;;;;;;;;4963405;28;20428;-80
2021/07/23 03:24:08;;;;;;;4.30;3.35;;;;;;;;;;4985540;28;20181;-79
2021/07/23 03:26:33;;;;;;;4.32;3.80;;;;;;;;;;4987094;28;20489;-80
2021/07/23 03:28:59;;;;;;;6.78;3.60;;;;;;;;;;4984297;28;20201;-80
2021/07/23 03:31:24;;;;;;;6.28;3.85;;;;;;;;;;4984277;28;20180;-80
2021/07/23 03:33:50;;;;;;;5.50;4.10;;;;;;;;;;4986513;28;20184;-80
2021/07/23 03:36:15;;;;;;;4.78;3.97;;;;;;;;;;5002454;23;20310;-56
2021/07/23 03:38:40;;;;;;;5.57;4.45;;;;;;;;;;4972841;28;20664;-55
2021/07/23 03:41:05;;;;;;;4.07;3.50;;;;;;;;;;4989493;28;20219;-55
2021/07/23 03:43:30;;;;;;;5.47;3.42;;;;;;;;;;4989375;28;20792;-56
2021/07/23 03:45:56;;;;;;;5.07;3.60;;;;;;;;;;4988809;28;20462;-55
2021/07/23 03:48:21;;;;;;;6.97;4.00;;;;;;;;;;4989217;28;20180;-55
2021/07/23 03:50:48;;;;;;;7.68;3.80;;;;;;;;;;4987780;28;20208;-55
2021/07/23 03:53:13;;;;;;;4.30;3.90;;;;;;;;;;4990715;28;20419;-55
2021/07/23 03:55:38;;;;;;;7.22;4.10;;;;;;;;;;4990511;28;20590;-54
2021/07/23 03:58:04;;;;;;;4.20;3.58;;;;;;;;;;4987488;28;20466;-56
2021/07/23 04:00:30;;;;;;;9.50;3.95;;;;;;;;;;4984378;28;20227;-55
2021/07/23 04:02:55;;;;;;;4.93;3.65;;;;;;;;;;4990485;28;20239;-55
2021/07/23 04:05:20;;;;;;;5.13;3.67;;;;;;;;;;4989055;28;20188;-55
2021/07/23 04:07:45;;;;;;;4.70;3.67;;;;;;;;;;4988832;28;20427;-54
2021/07/23 04:10:10;;;;;;;5.70;4.20;;;;;;;;;;4985164;28;21058;-55
2021/07/23 04:12:36;;;;;;;4.20;3.80;;;;;;;;;;4986448;28;20648;-55
2021/07/23 04:15:04;;;;;;;10.45;5.03;;;;;;;;;;4985310;28;20211;-54
2021/07/23 04:17:29;;;;;;;7.32;4.20;;;;;;;;;;4986708;28;20191;-53
2021/07/23 04:19:54;;;;;;;7.20;4.60;;;;;;;;;;4987715;28;20600;-54
2021/07/23 04:22:19;;;;;;;6.83;3.97;;;;;;;;;;4990535;28;20275;-55
2021/07/23 04:24:45;;;;;;;5.32;4.45;;;;;;;;;;4988023;28;21178;-55
2021/07/23 04:27:10;;;;;;;6.13;4.10;;;;;;;;;;4991298;28;20180;-55
2021/07/23 04:29:35;;;;;;;4.90;4.10;;;;;;;;;;4974388;28;20676;-55
2021/07/23 04:32:00;;;;;;;4.32;3.60;;;;;;;;;;4988613;28;20199;-56
2021/07/23 04:34:26;;;;;;;4.53;4.10;;;;;;;;;;4989969;28;20196;-55
2021/07/23 04:36:51;;;;;;;7.07;3.80;;;;;;;;;;4987726;28;20220;-55
2021/07/23 04:39:16;;;;;;;5.83;4.50;;;;;;;;;;4986394;28;20188;-55
2021/07/23 04:41:41;;;;;;;7.10;4.47;;;;;;;;;;4980873;28;20598;-55
2021/07/23 04:44:06;;;;;;;5.82;3.70;;;;;;;;;;4987628;28;20846;-56
2021/07/23 04:46:32;;;;;;;4.28;3.58;;;;;;;;;;4985558;28;20188;-55
2021/07/23 04:48:57;;;;;;;5.22;4.25;;;;;;;;;;4989015;28;20188;-57
2021/07/23 04:51:22;;;;;;;6.90;4.45;;;;;;;;;;4988525;28;20226;-54
2021/07/23 04:53:48;;;;;;;6.32;5.13;;;;;;;;;;4984796;28;20279;-55
2021/07/23 04:56:13;;;;;;;21.10;5.55;;;;;;;;;;4986728;28;20235;-54
2021/07/23 04:58:38;;;;;;;7.50;5.03;;;;;;;;;;4989120;28;20220;-55
2021/07/23 05:01:03;;;;;;;5.88;4.13;;;;;;;;;;4988179;28;20667;-55
2021/07/23 05:03:36;;;;;;;7.25;4.68;;;;;;;;;;4985899;28;20195;-55
2021/07/23 05:06:03;;;;;;;6.18;4.63;;;;;;;;;;4986009;28;20184;-55
2021/07/23 05:08:28;;;;;;;8.52;5.05;;;;;;;;;;4982719;28;20188;-55
2021/07/23 05:10:54;;;;;;;7.35;4.90;;;;;;;;;;4986832;28;20200;-56
2021/07/23 05:13:21;;;;;;;6.97;4.85;;;;;;;;;;4986935;28;20222;-55
2021/07/23 05:15:46;;;;;;;8.65;4.68;;;;;;;;;;4971029;28;20204;-55
2021/07/23 05:18:12;;;;;;;7.85;4.85;;;;;;;;;;4972402;28;20179;-56
2021/07/23 05:20:38;;;;;;;7.35;5.10;;;;;;;;;;4987079;28;20204;-55
2021/07/23 05:23:03;;;;;;;8.80;5.30;;;;;;;;;;4984332;28;20183;-55
2021/07/23 05:25:28;;;;;;;5.00;4.22;;;;;;;;;;4985241;28;20262;-55
2021/07/23 05:27:55;;;;;;;7.43;4.53;;;;;;;;;;4978173;28;20279;-53
2021/07/23 05:30:20;;;;;;;8.80;4.60;;;;;;;;;;4987105;28;20695;-55
2021/07/23 05:32:45;;;;;;;5.38;4.20;;;;;;;;;;4985450;28;20187;-53
2021/07/23 05:35:10;;;;;;;5.85;4.03;;;;;;;;;;4986299;28;20287;-55
2021/07/23 05:37:35;;;;;;;7.07;4.88;;;;;;;;;;4987437;28;20649;-54
2021/07/23 05:40:00;;;;;;;6.28;4.60;;;;;;;;;;4985638;28;20227;-55
2021/07/23 05:42:26;;;;;;;4.95;4.47;;;;;;;;;;4983471;28;20191;-55
2021/07/23 05:44:51;;;;;;;11.15;4.50;;;;;;;;;;4976956;28;20180;-54
2021/07/23 05:47:18;;;;;;;8.20;4.40;;;;;;;;;;4983183;28;20613;-53
2021/07/23 05:49:43;;;;;;;6.78;4.22;;;;;;;;;;4985345;28;20207;-54
2021/07/23 05:52:08;;;;;;;7.43;4.28;;;;;;;;;;4969851;28;20191;-54
2021/07/23 05:54:33;;;;;;;7.25;4.35;;;;;;;;;;4984633;28;20667;-54
2021/07/23 05:56:59;;;;;;;9.55;4.55;;;;;;;;;;4986214;28;20184;-53
2021/07/23 05:59:24;;;;;;;6.22;4.20;;;;;;;;;;4986192;28;20258;-55
2021/07/23 06:01:49;;;;;;;6.32;4.38;;;;;;;;;;4984476;28;20649;-53
2021/07/23 06:04:14;;;;;;;7.78;3.90;;;;;;;;;;4968171;28;20431;-54
2021/07/23 06:06:39;;;;;;;7.13;4.03;;;;;;;;;;4985704;28;20196;-53
2021/07/23 06:09:04;;;;;;;8.15;4.50;;;;;;;;;;4986013;28;20184;-55
2021/07/23 06:11:30;;;;;;;6.32;4.32;;;;;;;;;;4984849;28;20739;-54
2021/07/23 06:13:55;;;;;;;8.75;4.00;;;;;;;;;;4983950;28;20195;-57
2021/07/23 06:16:20;;;;;;;5.53;4.03;;;;;;;;;;4984047;28;20219;-56
2021/07/23 06:18:45;;;;;;;6.40;3.90;;;;;;;;;;4987753;28;20187;-56
2021/07/23 06:21:11;;;;;;;5.93;3.50;;;;;;;;;;4984952;28;20195;-54
2021/07/23 06:23:36;;;;;;;5.95;3.72;;;;;;;;;;4987425;28;20218;-55
2021/07/23 06:26:04;;;;;;;6.85;3.65;;;;;;;;;;4987866;28;20329;-55
2021/07/23 06:28:30;;;;;;;5.20;3.13;;;;;;;;;;4988530;28;20226;-55
2021/07/23 06:30:59;;;;;;;4.72;3.47;;;;;;;;;;4986554;28;20433;-55
2021/07/23 06:33:24;;;;;;;3.75;3.20;;;;;;;;;;4982170;28;20200;-55
2021/07/23 06:35:49;;;;;;;6.22;2.95;;;;;;;;;;4984031;28;20208;-55
2021/07/23 06:38:14;;;;;;;8.10;4.07;;;;;;;;;;4988096;28;20188;-55
2021/07/23 06:40:39;;;;;;;9.83;3.77;;;;;;;;;;4984270;28;20447;-55
2021/07/23 06:43:04;;;;;;;9.98;3.53;;;;;;;;;;4984736;28;20434;-55
2021/07/23 06:45:30;;;;;;;5.47;3.40;;;;;;;;;;4971634;28;20443;-55
2021/07/23 06:47:55;;;;;;;7.00;3.78;;;;;;;;;;4982970;28;20198;-56
2021/07/23 06:50:20;;;;;;;4.38;3.10;;;;;;;;;;4983392;28;20231;-56
2021/07/23 06:52:45;;;;;;;7.72;3.67;;;;;;;;;;4985533;28;20192;-56
2021/07/23 06:55:12;;;;;;;5.10;3.53;;;;;;;;;;4985613;28;20219;-57
2021/07/23 06:57:37;;;;;;;6.93;4.10;;;;;;;;;;4986378;28;20833;-55
2021/07/23 07:00:03;;;;;;;11.70;6.77;;;;;;;;;;4984683;28;20195;-56
2021/07/23 07:02:28;;;;;;;7.45;4.55;;;;;;;;;;4981901;28;20431;-56
2021/07/23 07:04:53;;;;;;;7.32;6.63;;;;;;;;;;4984203;28;20246;-56
2021/07/23 07:07:18;;;;;;;5.25;3.25;;;;;;;;;;4985064;28;20207;-55
2021/07/23 07:09:43;;;;;;;5.20;3.50;;;;;;;;;;4981964;28;20204;-55
2021/07/23 07:12:09;;;;;;;9.27;3.40;;;;;;;;;;4987156;28;20522;-56
2021/07/23 07:14:35;;;;;;;4.15;2.80;;;;;;;;;;4986386;28;20787;-56
2021/07/23 07:17:00;;;;;;;7.25;2.47;;;;;;;;;;4986523;28;20668;-56
2021/07/23 07:19:25;;;;;;;3.50;2.60;;;;;;;;;;4980556;28;20739;-56
2021/07/23 07:21:50;;;;;;;4.67;2.70;;;;;;;;;;4970015;28;20191;-55
2021/07/23 07:24:16;;;;;;;4.35;2.55;;;;;;;;;;4984971;28;20515;-56
2021/07/23 07:26:42;;;;;;;3.33;2.55;;;;;;;;;;4969801;28;20192;-56
2021/07/23 07:29:07;;;;;;;6.22;2.50;;;;;;;;;;4987024;28;20207;-56
2021/07/23 07:31:32;;;;;;;4.82;2.45;;;;;;;;;;4982906;28;20191;-56
2021/07/23 07:33:57;;;;;;;3.33;2.07;;;;;;;;;;4983750;28;20227;-57
2021/07/23 07:36:22;;;;;;;4.53;2.67;;;;;;;;;;4984191;28;20295;-57
2021/07/23 07:38:48;;;;;;;6.63;2.93;;;;;;;;;;4983055;28;20191;-56
2021/07/23 07:41:16;;;;;;;5.73;2.70;;;;;;;;;;4978930;28;20217;-57
2021/07/23 07:43:41;;;;;;;5.00;2.95;;;;;;;;;;4985380;28;20589;-57
2021/07/23 07:46:06;;;;;;;5.93;3.07;;;;;;;;;;4979319;28;20262;-57
2021/07/23 07:48:32;;;;;;;8.23;3.20;;;;;;;;;;4985657;28;20183;-56
2021/07/23 07:50:57;;;;;;;5.50;2.80;;;;;;;;;;4981712;28;20695;-57
2021/07/23 07:53:22;;;;;;;3.87;3.13;;;;;;;;;;4986781;28;20191;-57
2021/07/23 07:55:47;;;;;;;4.33;3.40;;;;;;;;;;4984858;28;20677;-56
2021/07/23 07:58:12;;;;;;;6.13;3.10;;;;;;;;;;4985221;28;20192;-57
2021/07/23 08:00:38;;;;;;;8.32;3.28;;;;;;;;;;4981508;28;20199;-57
2021/07/23 08:03:03;;;;;;;4.35;3.30;;;;;;;;;;4985488;28;20226;-57
2021/07/23 08:05:28;;;;;;;4.23;3.83;;;;;;;;;;4984244;28;20192;-56
2021/07/23 08:07:57;;;;;;;3.80;3.23;;;;;;;;;;4971368;28;20191;-56
2021/07/23 08:10:25;;;;;;;5.00;3.67;;;;;;;;;;4984654;28;20195;-57
2021/07/23 08:12:50;;;;;;;6.75;4.03;;;;;;;;;;4988627;28;20582;-57
2021/07/23 08:15:16;;;;;;;4.17;3.77;;;;;;;;;;4988026;28;20211;-57
2021/07/23 08:17:41;;;;;;;4.10;3.78;;;;;;;;;;4988258;28;20554;-56
2021/07/23 08:20:07;;;;;;;4.73;3.60;;;;;;;;;;4988407;28;20204;-57
2021/07/23 08:22:32;;;;;;;4.10;3.72;;;;;;;;;;4986283;28;20687;-56
2021/07/23 08:24:58;;;;;;;4.45;3.97;;;;;;;;;;4984199;28;20176;-56
2021/07/23 08:27:23;;;;;;;5.33;3.73;;;;;;;;;;4988900;28;20722;-56
2021/07/23 08:29:48;;;;;;;5.33;4.17;;;;;;;;;;4987333;28;20540;-57
2021/07/23 08:32:14;;;;;;;5.15;3.85;;;;;;;;;;4987225;28;20195;-56
2021/07/23 08:34:39;;;;;;;5.25;4.05;;;;;;;;;;4989126;28;20207;-58
2021/07/23 08:37:05;;;;;;;5.47;3.70;;;;;;;;;;4977002;28;20204;-56
2021/07/23 08:39:30;;;;;;;5.10;4.22;;;;;;;;;;4986204;28;20207;-56
2021/07/23 08:41:56;;;;;;;5.53;4.30;;;;;;;;;;4986098;28;20343;-56
2021/07/23 08:44:22;;;;;;;6.50;3.97;;;;;;;;;;4987595;28;20674;-56
2021/07/23 08:46:48;;;;;;;5.10;4.70;;;;;;;;;;4986500;28;20186;-56
2021/07/23 08:49:14;;;;;;;7.05;5.00;;;;;;;;;;4987138;28;20197;-56
2021/07/23 08:51:39;;;;;;;5.85;4.40;;;;;;;;;;4990001;28;20176;-56
2021/07/23 08:54:05;;;;;;;5.40;4.90;;;;;;;;;;4988138;28;20191;-56
2021/07/23 08:56:30;;;;;;;5.95;3.92;;;;;;;;;;4986156;28;20467;-55
2021/07/23 08:58:55;;;;;;;6.27;3.73;;;;;;;;;;4987115;28;20210;-56
2021/07/23 09:01:20;;;;;;;5.47;4.07;;;;;;;;;;5010864;23;20226;-57
2021/07/23 09:03:45;;;;;;;10.97;4.43;;;;;;;;;;5018007;28;20194;-56
2021/07/23 09:06:18;;;;;;;10.27;4.03;;;;;;;;;;5021504;28;20761;-55
2021/07/23 09:08:47;;;;;;;4.72;3.70;;;;;;;;;;5024859;28;20221;-56
2021/07/23 09:11:12;;;;;;;5.15;4.00;;;;;;;;;;5021361;28;20203;-55
2021/07/23 09:13:37;;;;;;;6.20;4.10;;;;;;;;;;5020303;28;20193;-55
2021/07/23 09:16:02;;;;;;;7.97;4.10;;;;;;;;;;5020365;28;20469;-57
2021/07/23 09:18:32;;;;;;;4.47;4.10;;;;;;;;;;5022230;28;20282;-55
2021/07/23 09:21:01;;;;;;;7.40;5.22;;;;;;;;;;5029234;28;20194;-55
2021/07/23 09:23:30;;;;;;;6.82;5.50;;;;;;;;;;5033072;28;20194;-55
2021/07/23 09:25:57;;;;;;;12.27;5.45;;;;;;;;;;5021195;28;20210;-57
2021/07/23 09:28:23;;;;;;;4.45;4.03;;;;;;;;;;5023794;28;20173;-57
2021/07/23 09:30:49;;;;;;;5.18;4.25;;;;;;;;;;5020960;28;20596;-57
2021/07/23 09:33:22;;;;;;;3.95;3.55;;;;;;;;;;5019380;28;20182;-56
2021/07/23 09:35:54;;;;;;;4.22;3.45;;;;;;;;;;5022404;28;20191;-57
2021/07/23 09:38:20;;;;;;;5.53;4.03;;;;;;;;;;5018348;28;20174;-56
2021/07/23 09:40:46;;;;;;;5.22;4.35;;;;;;;;;;5016953;28;20198;-57
2021/07/23 09:43:11;;;;;;;6.07;4.35;;;;;;;;;;5023609;28;20178;-56
2021/07/23 09:45:36;;;;;;;7.03;3.90;;;;;;;;;;5019790;28;20194;-57
2021/07/23 09:48:09;;;;;;;6.28;4.10;;;;;;;;;;5010629;28;20441;-56
2021/07/23 09:50:37;;;;;;;4.35;3.65;;;;;;;;;;5021023;28;20210;-56
2021/07/23 09:53:02;;;;;;;4.07;3.67;;;;;;;;;;5010081;28;20183;-56
2021/07/23 09:55:28;;;;;;;3.50;3.20;;;;;;;;;;5020601;28;20252;-57
2021/07/23 09:57:53;;;;;;;4.30;3.80;;;;;;;;;;5021000;28;20183;-57
2021/07/23 10:00:22;;;;;;;10.15;4.80;;;;;;;;;;5015269;28;20182;-56
2021/07/23 10:02:49;;;;;;;7.55;5.05;;;;;;;;;;5017173;28;20174;-56
2021/07/23 10:05:21;;;;;;;7.70;4.05;;;;;;;;;;5002271;28;20205;-56
2021/07/23 10:07:49;;;;;;;7.85;4.75;;;;;;;;;;5025344;28;20665;-55
2021/07/23 10:10:16;;;;;;;6.55;5.20;;;;;;;;;;5018039;28;20190;-58
2021/07/23 10:12:43;;;;;;;7.97;5.60;;;;;;;;;;5016568;28;20239;-56
2021/07/23 10:15:09;;;;;;;7.20;5.60;;;;;;;;;;5030724;28;20197;-57
2021/07/23 10:17:34;;;;;;;5.43;4.63;;;;;;;;;;5018611;28;21728;-56
2021/07/23 10:20:00;;;;;;;5.80;4.60;;;;;;;;;;5008865;28;20716;-56
2021/07/23 10:22:26;;;;;;;7.25;5.38;;;;;;;;;;5023014;28;20206;-56
2021/07/23 10:24:52;;;;;;;6.40;4.78;;;;;;;;;;5022568;28;20206;-56
2021/07/23 10:27:17;;;;;;;6.07;5.15;;;;;;;;;;5030357;28;20580;-57
2021/07/23 10:29:45;;;;;;;5.35;4.20;;;;;;;;;;5004265;28;20186;-57
2021/07/23 10:32:22;;;;;;;7.13;4.50;;;;;;;;;;5019881;28;20285;-56
2021/07/23 10:34:47;;;;;;;7.72;4.28;;;;;;;;;;5017510;28;20202;-57
2021/07/23 10:37:33;;;;;;;7.40;4.13;;;;;;;;;;4997512;28;20652;-57
2021/07/23 10:40:07;;;;;;;5.68;4.40;;;;;;;;;;5017109;28;20681;-57
2021/07/23 10:42:33;;;;;;;9.32;3.83;;;;;;;;;;5024353;28;20229;-56
2021/07/23 10:44:59;;;;;;;5.40;3.42;;;;;;;;;;5025249;28;21552;-57
2021/07/23 10:47:37;;;;;;;5.95;3.70;;;;;;;;;;5025452;28;20704;-58
2021/07/23 10:50:03;;;;;;;9.15;4.95;;;;;;;;;;5018028;28;20245;-56
2021/07/23 10:52:34;;;;;;;5.30;4.40;;;;;;;;;;5027817;28;20715;-55
2021/07/23 10:55:08;;;;;;;5.30;4.00;;;;;;;;;;5029845;28;20575;-57
2021/07/23 10:57:34;;;;;;;9.85;4.45;;;;;;;;;;5019481;28;20182;-57
2021/07/23 11:00:00;;;;;;;4.53;4.00;;;;;;;;;;5028028;28;20274;-57
2021/07/23 11:02:28;;;;;;;5.53;3.72;;;;;;;;;;5006077;28;20211;-57
2021/07/23 11:05:07;;;;;;;5.65;4.32;;;;;;;;;;5015049;28;20706;-58
2021/07/23 11:07:32;;;;;;;5.97;4.15;;;;;;;;;;5016377;28;20198;-57
2021/07/23 11:09:57;;;;;;;4.72;3.28;;;;;;;;;;5018823;28;20194;-58
2021/07/23 11:12:25;;;;;;;7.18;4.10;;;;;;;;;;5026101;28;20233;-56
2021/07/23 11:14:51;;;;;;;10.00;4.07;;;;;;;;;;5027245;28;20309;-55
2021/07/23 11:17:16;;;;;;;6.32;3.88;;;;;;;;;;5005513;28;20179;-57
2021/07/23 11:19:45;;;;;;;5.75;3.47;;;;;;;;;;5020812;28;20234;-56
2021/07/23 11:22:11;;;;;;;6.57;3.55;;;;;;;;;;5020252;28;20202;-56
2021/07/23 11:24:36;;;;;;;3.80;3.25;;;;;;;;;;5027158;28;20721;-57
2021/07/23 11:27:02;;;;;;;6.33;3.57;;;;;;;;;;5020350;28;20191;-57
2021/07/23 11:29:35;;;;;;;4.22;3.00;;;;;;;;;;5025723;28;20190;-55
2021/07/23 11:32:05;;;;;;;3.35;3.05;;;;;;;;;;5017556;28;20223;-55
2021/07/23 11:34:36;;;;;;;3.67;2.80;;;;;;;;;;5024349;28;20183;-57
2021/07/23 11:37:11;;;;;;;8.98;3.80;;;;;;;;;;5013994;28;20196;-57
2021/07/23 11:39:47;;;;;;;4.15;3.70;;;;;;;;;;5023230;28;20209;-59
2021/07/23 11:42:12;;;;;;;4.10;3.70;;;;;;;;;;5008049;28;20199;-57
2021/07/23 11:44:37;;;;;;;4.50;3.10;;;;;;;;;;5033043;28;20898;-58
2021/07/23 11:47:02;;;;;;;3.43;3.00;;;;;;;;;;5030018;28;20192;-56
2021/07/23 11:49:31;;;;;;;4.43;2.92;;;;;;;;;;5025507;28;20206;-56
2021/07/23 11:51:57;;;;;;;2.78;2.55;;;;;;;;;;5019922;28;20207;-56
2021/07/23 11:54:22;;;;;;;6.22;3.75;;;;;;;;;;5030893;28;20269;-56
2021/07/23 11:56:47;;;;;;;6.15;3.55;;;;;;;;;;5038355;28;20617;-56
2021/07/23 11:59:13;;;;;;;4.78;3.45;;;;;;;;;;5022583;28;20634;-56
2021/07/23 12:01:39;;;;;;;8.82;3.33;;;;;;;;;;5025810;28;20654;-57
2021/07/23 12:04:05;;;;;;;3.85;3.20;;;;;;;;;;5034948;28;20185;-57
2021/07/23 12:06:31;;;;;;;3.70;2.92;;;;;;;;;;5007903;28;20193;-56
2021/07/23 12:08:57;;;;;;;3.88;2.72;;;;;;;;;;5021448;28;20684;-58
2021/07/23 12:11:23;;;;;;;4.50;2.55;;;;;;;;;;5025852;28;20203;-57
2021/07/23 12:13:51;;;;;;;4.10;2.72;;;;;;;;;;5024760;28;20182;-56
2021/07/23 12:16:17;;;;;;;4.93;2.65;;;;;;;;;;5030892;28;20214;-56
2021/07/23 12:18:55;;;;;;;4.60;3.13;;;;;;;;;;5028530;28;20182;-57
2021/07/23 12:21:22;;;;;;;3.67;2.97;;;;;;;;;;5021677;28;20248;-56
2021/07/23 12:23:55;;;;;;;5.50;3.22;;;;;;;;;;5020068;28;20300;-56
2021/07/23 12:26:27;;;;;;;3.67;2.83;;;;;;;;;;5023827;28;20593;-57
2021/07/23 12:28:53;;;;;;;5.47;3.05;;;;;;;;;;5030684;28;20179;-57
2021/07/23 12:31:18;;;;;;;3.58;2.60;;;;;;;;;;5021663;28;20206;-58
2021/07/23 12:33:44;;;;;;;4.35;2.35;;;;;;;;;;5022198;28;20210;-57
2021/07/23 12:36:22;;;;;;;3.20;2.40;;;;;;;;;;5021405;28;20714;-56
2021/07/23 12:39:01;;;;;;;2.85;2.45;;;;;;;;;;5001420;28;20431;-56
2021/07/23 12:41:26;;;;;;;3.92;2.80;;;;;;;;;;5024477;28;20193;-55
2021/07/23 12:44:08;;;;;;;5.43;2.67;;;;;;;;;;5032284;28;20193;-56
2021/07/23 12:46:34;;;;;;;3.50;2.47;;;;;;;;;;5024572;28;20248;-56
2021/07/23 12:49:08;;;;;;;5.93;2.70;;;;;;;;;;5037270;28;20194;-56
2021/07/23 12:51:33;;;;;;;5.18;2.90;;;;;;;;;;5022157;28;20213;-56
2021/07/23 12:53:58;;;;;;;3.92;2.65;;;;;;;;;;5016932;28;20188;-56
2021/07/23 12:56:33;;;;;;;2.93;2.67;;;;;;;;;;5017002;28;20210;-55
2021/07/23 12:58:58;;;;;;;2.80;2.40;;;;;;;;;;5033322;28;20421;-57
2021/07/23 13:01:24;;;;;;;6.28;2.53;;;;;;;;;;5015665;28;20616;-55
2021/07/23 13:03:50;;;;;;;6.38;2.42;;;;;;;;;;5029603;28;20532;-55
2021/07/23 13:06:19;;;;;;;4.07;2.65;;;;;;;;;;5019862;28;20194;-56
2021/07/23 13:08:45;;;;;;;4.80;2.72;;;;;;;;;;5008352;28;20206;-55
2021/07/23 13:11:10;;;;;;;2.80;2.50;;;;;;;;;;5028743;28;20198;-56
2021/07/23 13:13:37;;;;;;;6.00;3.03;;;;;;;;;;5008642;28;20206;-56
2021/07/23 13:16:12;;;;;;;5.45;2.90;;;;;;;;;;5028839;28;20227;-56
2021/07/23 13:18:37;;;;;;;4.20;2.45;;;;;;;;;;5028800;28;20201;-56
2021/07/23 13:21:03;;;;;;;4.30;2.50;;;;;;;;;;4998876;28;20675;-56
2021/07/23 13:23:29;;;;;;;3.67;2.30;;;;;;;;;;5024930;28;20187;-55
2021/07/23 13:25:57;;;;;;;3.58;2.33;;;;;;;;;;5021285;28;20241;-56
2021/07/23 13:28:22;;;;;;;4.90;2.45;;;;;;;;;;5022280;28;20336;-56
2021/07/23 13:30:47;;;;;;;10.33;2.67;;;;;;;;;;5032750;28;20722;-56
2021/07/23 13:33:12;;;;;;;6.37;2.83;;;;;;;;;;5035193;28;20428;-56
2021/07/23 13:35:37;;;;;;;3.08;2.33;;;;;;;;;;5011909;28;20992;-56
2021/07/23 13:38:07;;;;;;;2.60;2.10;;;;;;;;;;5030070;28;20167;-55
2021/07/23 13:40:33;;;;;;;4.25;2.28;;;;;;;;;;5016718;28;20454;-55
2021/07/23 13:43:02;;;;;;;2.60;2.05;;;;;;;;;;5016709;28;20224;-55
2021/07/23 13:45:27;;;;;;;2.67;2.47;;;;;;;;;;5026014;28;20189;-55
2021/07/23 13:47:54;;;;;;;3.13;2.30;;;;;;;;;;5023734;28;20187;-55
2021/07/23 13:50:19;;;;;;;3.67;2.45;;;;;;;;;;5022616;28;20959;-55
2021/07/23 13:52:45;;;;;;;4.97;2.83;;;;;;;;;;5006539;28;20191;-55
2021/07/23 13:55:10;;;;;;;4.27;2.83;;;;;;;;;;5024802;28;20465;-55
2021/07/23 13:57:35;;;;;;;6.20;2.80;;;;;;;;;;5027213;28;20424;-55
2021/07/23 14:00:06;;;;;;;5.80;3.17;;;;;;;;;;5020018;28;20795;-56
2021/07/23 14:02:32;;;;;;;4.22;2.40;;;;;;;;;;5023285;28;20268;-55
2021/07/23 14:04:58;;;;;;;2.67;2.42;;;;;;;;;;5031325;28;20766;-56
2021/07/23 14:07:23;;;;;;;2.97;2.40;;;;;;;;;;5019836;28;20190;-55
2021/07/23 14:09:48;;;;;;;4.82;2.10;;;;;;;;;;5014671;28;20448;-55
2021/07/23 14:12:13;;;;;;;2.50;2.30;;;;;;;;;;5029543;28;20212;-56
2021/07/23 14:14:38;;;;;;;3.92;2.10;;;;;;;;;;5021045;28;20872;-55
2021/07/23 14:17:03;;;;;;;2.53;2.23;;;;;;;;;;5021868;28;20656;-55
2021/07/23 14:19:28;;;;;;;2.43;2.20;;;;;;;;;;5029246;28;20198;-55
2021/07/23 14:21:54;;;;;;;4.57;2.40;;;;;;;;;;5023810;28;20470;-56
2021/07/23 14:24:19;;;;;;;4.43;2.30;;;;;;;;;;5003921;28;20442;-56
2021/07/23 14:26:44;;;;;;;4.90;2.47;;;;;;;;;;5005604;28;20194;-55
2021/07/23 14:29:09;;;;;;;2.43;2.10;;;;;;;;;;5021208;28;20842;-55
2021/07/23 14:31:34;;;;;;;2.65;2.38;;;;;;;;;;5017786;28;20450;-56
2021/07/23 14:33:59;;;;;;;4.57;2.40;;;;;;;;;;5036021;28;20190;-56
2021/07/23 14:36:25;;;;;;;2.60;2.40;;;;;;;;;;5021015;28;20690;-55